createdAt,value
2022-11-05T00:05:07.842Z,97960.53
2022-11-05T00:10:35.736Z,97967.56
2022-11-05T00:16:15.798Z,97976.47
2022-11-05T00:21:52.739Z,97978.13
2022-11-05T00:27:18.717Z,97984.34
2022-11-05T00:32:45.757Z,97984.50
2022-11-05T00:38:10.733Z,98000.41
2022-11-05T00:43:47.860Z,98005.06
2022-11-05T00:49:36.790Z,98018.47
2022-11-05T00:55:01.745Z,98012.72
2022-11-05T01:00:27.781Z,98013.53
2022-11-05T01:05:58.767Z,98016.06
2022-11-05T01:11:39.763Z,98023.13
2022-11-05T01:17:03.725Z,98019.44
2022-11-05T01:22:31.760Z,98017.75
2022-11-05T01:27:55.862Z,98030.44
2022-11-05T01:33:20.782Z,98039.91
2022-11-05T01:38:47.805Z,98038.66
2022-11-05T01:44:12.789Z,98049.97
2022-11-05T01:49:44.751Z,98057.03
2022-11-05T01:55:13.761Z,98070.31
2022-11-05T02:00:37.783Z,98070.03
2022-11-05T02:06:04.761Z,98072.00
2022-11-05T02:11:34.800Z,98086.53
2022-11-05T02:17:06.795Z,98082.16
2022-11-05T02:22:56.794Z,98085.81
2022-11-05T02:28:52.781Z,98101.31
2022-11-05T02:34:30.804Z,98099.91
2022-11-05T02:40:02.810Z,98109.22
2022-11-05T02:45:36.777Z,98106.13
2022-11-05T02:51:11.941Z,98101.19
2022-11-05T02:56:41.920Z,98092.47
2022-11-05T03:02:07.928Z,98109.75
2022-11-05T03:07:48.958Z,98109.47
2022-11-05T03:13:25.801Z,98114.41
2022-11-05T03:18:59.779Z,98117.59
2022-11-05T03:24:30.811Z,98121.56
2022-11-05T03:29:58.825Z,98127.19
2022-11-05T03:35:27.799Z,98139.00
2022-11-05T03:40:56.813Z,98147.13
2022-11-05T03:46:26.824Z,98158.97
2022-11-05T03:51:57.807Z,98161.78
2022-11-05T03:57:30.877Z,98172.47
2022-11-05T04:02:54.987Z,98181.06
2022-11-05T04:08:31.820Z,98189.91
2022-11-05T04:13:58.900Z,98197.25
2022-11-05T04:19:43.821Z,98196.66
2022-11-05T04:25:07.833Z,98197.78
2022-11-05T04:30:35.817Z,98200.88
2022-11-05T04:36:01.862Z,98207.34
2022-11-05T04:41:26.853Z,98207.59
2022-11-05T04:46:53.857Z,98210.69
2022-11-05T04:52:18.865Z,98215.16
2022-11-05T04:57:50.857Z,98229.38
2022-11-05T05:03:17.837Z,98227.53
2022-11-05T05:08:41.858Z,98244.44
2022-11-05T05:14:06.859Z,98245.00
2022-11-05T05:19:33.855Z,98246.00
2022-11-05T05:24:58.880Z,98253.03
2022-11-05T05:30:24.864Z,98247.94
2022-11-05T05:35:51.851Z,98252.72
2022-11-05T05:41:16.860Z,98261.13
2022-11-05T05:46:41.870Z,98265.19
2022-11-05T05:52:08.894Z,98276.53
2022-11-05T05:57:33.893Z,98272.31
2022-11-05T06:02:58.963Z,98286.19
2022-11-05T06:08:26.876Z,98285.84
2022-11-05T06:13:51.917Z,98297.06
2022-11-05T06:19:16.889Z,98308.00
2022-11-05T06:24:44.887Z,98308.41
2022-11-05T06:30:09.960Z,98320.19
2022-11-05T06:35:33.937Z,98337.31
2022-11-05T06:41:05.804Z,98346.16
2022-11-05T06:46:32.906Z,98355.75
2022-11-05T06:51:57.917Z,98380.50
2022-11-05T06:57:31.901Z,98397.09
2022-11-05T07:02:57.065Z,98399.41
2022-11-05T07:08:21.908Z,98411.38
2022-11-05T07:13:49.932Z,98411.88
2022-11-05T07:19:13.914Z,98430.31
2022-11-05T07:24:38.906Z,98444.25
2022-11-05T07:30:05.975Z,98453.84
2022-11-05T07:35:31.109Z,98457.00
2022-11-05T07:40:54.918Z,98456.00
2022-11-05T07:46:21.924Z,98457.31
2022-11-05T07:51:45.933Z,98463.00
2022-11-05T07:57:18.287Z,98457.72
2022-11-05T08:02:45.113Z,98464.84
2022-11-05T08:08:09.956Z,98473.06
2022-11-05T08:13:34.965Z,98488.06
2022-11-05T08:19:01.923Z,98499.69
2022-11-05T08:24:26.948Z,98497.22
2022-11-05T08:29:53.534Z,98506.41
2022-11-05T08:35:20.958Z,98512.94
2022-11-05T08:40:46.965Z,98525.50
2022-11-05T08:46:13.252Z,98533.78
2022-11-05T08:51:39.920Z,98544.63
2022-11-05T08:57:10.938Z,98557.28
2022-11-05T09:02:36.040Z,98535.47
2022-11-05T09:08:02.974Z,98537.72
2022-11-05T09:13:28.157Z,98517.28
2022-11-05T09:18:51.984Z,98518.84
2022-11-05T09:24:19.968Z,98516.47
2022-11-05T09:29:43.960Z,98505.00
2022-11-05T09:35:08.975Z,98504.66
2022-11-05T09:40:37.974Z,98501.81
2022-11-05T09:46:07.986Z,98497.09
2022-11-05T09:51:32.961Z,98497.63
2022-11-05T09:57:07.971Z,98495.22
2022-11-05T10:02:38.088Z,98493.94
2022-11-05T10:08:06.012Z,98509.56
2022-11-05T10:13:49.833Z,98503.88
2022-11-05T10:19:20.010Z,98504.91
2022-11-05T10:24:46.111Z,98517.06
2022-11-05T10:30:12.992Z,98514.72
2022-11-05T10:35:41.000Z,98506.03
2022-11-05T10:41:21.058Z,98498.88
2022-11-05T10:46:56.598Z,98503.19
2022-11-05T10:52:37.006Z,98503.06
2022-11-05T10:58:04.010Z,98493.84
2022-11-05T11:03:51.026Z,98501.28
2022-11-05T11:09:27.421Z,98507.16
2022-11-05T11:14:51.017Z,98506.44
2022-11-05T11:20:41.020Z,98502.94
2022-11-05T11:26:08.061Z,98514.22
2022-11-05T11:31:35.021Z,98519.34
2022-11-05T11:37:05.027Z,98520.34
2022-11-05T11:42:35.066Z,98516.28
2022-11-05T11:48:03.023Z,98512.03
2022-11-05T11:53:44.105Z,98500.16
2022-11-05T11:59:10.064Z,98490.00
2022-11-05T12:05:01.078Z,98487.84
2022-11-05T12:10:39.190Z,98494.78
2022-11-05T12:16:07.053Z,98487.22
2022-11-05T12:21:52.539Z,98483.28
2022-11-05T12:27:33.046Z,98496.31
2022-11-05T12:33:16.653Z,98487.13
2022-11-05T12:39:05.223Z,98494.44
2022-11-05T12:44:45.116Z,98497.75
2022-11-05T12:50:20.249Z,98503.78
2022-11-05T12:55:48.919Z,98498.22
2022-11-05T13:01:29.185Z,98504.31
2022-11-05T13:06:59.059Z,98499.31
2022-11-05T13:12:28.396Z,98496.84
2022-11-05T13:18:03.102Z,98498.59
2022-11-05T13:23:33.077Z,98505.22
2022-11-05T13:29:05.126Z,98503.25
2022-11-05T13:34:37.297Z,98500.88
2022-11-05T13:40:06.123Z,98501.53
2022-11-05T13:46:05.846Z,98510.59
2022-11-05T13:51:46.081Z,98511.75
2022-11-05T13:57:25.081Z,98510.06
2022-11-05T14:02:59.090Z,98516.84
2022-11-05T14:08:31.211Z,98527.06
2022-11-05T14:13:59.360Z,98518.50
2022-11-05T14:19:42.124Z,98510.78
2022-11-05T14:25:10.118Z,98509.41
2022-11-05T14:30:53.359Z,98506.13
2022-11-05T14:36:44.106Z,98517.94
2022-11-05T14:42:23.147Z,98505.47
2022-11-05T14:47:51.133Z,98524.34
2022-11-05T14:53:33.147Z,98517.44
2022-11-05T14:59:02.180Z,98524.66
2022-11-05T15:04:34.319Z,98522.63
2022-11-05T15:10:07.232Z,98530.19
2022-11-05T15:15:41.203Z,98524.50
2022-11-05T15:21:11.288Z,98527.09
2022-11-05T15:26:46.156Z,98542.41
2022-11-05T15:32:14.188Z,98538.38
2022-11-05T15:37:50.364Z,98539.97
2022-11-05T15:43:27.182Z,98554.84
2022-11-05T15:48:56.169Z,98566.00
2022-11-05T15:54:31.085Z,98562.72
2022-11-05T15:59:55.161Z,98555.72
2022-11-05T16:05:25.217Z,98562.88
2022-11-05T16:10:53.215Z,98563.16
2022-11-05T16:16:34.187Z,98577.84
2022-11-05T16:22:11.246Z,98581.69
2022-11-05T16:27:36.190Z,98578.44
2022-11-05T16:33:00.174Z,98585.91
2022-11-05T16:38:29.201Z,98583.53
2022-11-05T16:43:53.285Z,98594.38
2022-11-05T16:49:20.190Z,98597.91
2022-11-05T16:54:47.179Z,98606.06
2022-11-05T17:00:13.243Z,98600.94
2022-11-05T17:05:40.191Z,98613.59
2022-11-05T17:11:08.186Z,98628.25
2022-11-05T17:16:35.196Z,98631.59
2022-11-05T17:22:00.250Z,98636.06
2022-11-05T17:27:28.186Z,98642.22
2022-11-05T17:32:53.283Z,98650.78
2022-11-05T17:38:17.219Z,98653.00
2022-11-05T17:43:45.620Z,98662.28
2022-11-05T17:49:09.388Z,98662.09
2022-11-05T17:54:34.246Z,98672.47
2022-11-05T18:00:01.201Z,98670.69
2022-11-05T18:05:29.245Z,98673.19
2022-11-05T18:10:54.239Z,98668.84
2022-11-05T18:16:22.263Z,98685.69
2022-11-05T18:21:47.250Z,98689.38
2022-11-05T18:27:12.270Z,98695.59
2022-11-05T18:32:39.470Z,98695.34
2022-11-05T18:38:04.224Z,98699.75
2022-11-05T18:43:29.275Z,98691.34
2022-11-05T18:48:57.518Z,98690.16
2022-11-05T18:54:22.261Z,98686.41
2022-11-05T18:59:48.280Z,98691.38
2022-11-05T19:05:28.440Z,98686.78
2022-11-05T19:10:58.257Z,98677.53
2022-11-05T19:16:25.228Z,98681.69
2022-11-05T19:21:53.294Z,98681.19
2022-11-05T19:27:19.261Z,98693.81
2022-11-05T19:32:44.273Z,98692.97
2022-11-05T19:38:18.260Z,98693.19
2022-11-05T19:43:43.282Z,98685.31
2022-11-05T19:49:08.333Z,98701.34
2022-11-05T19:54:36.297Z,98703.78
2022-11-05T20:00:00.306Z,98710.31
2022-11-05T20:05:28.668Z,98711.53
2022-11-05T20:10:55.290Z,98720.63
2022-11-05T20:16:30.289Z,98717.13
2022-11-05T20:21:54.307Z,98724.16
2022-11-05T20:27:22.273Z,98732.03
2022-11-05T20:32:47.306Z,98749.66
2022-11-05T20:38:12.678Z,98740.91
2022-11-05T20:43:41.310Z,98738.72
2022-11-05T20:49:06.278Z,98736.28
2022-11-05T20:54:31.301Z,98729.13
2022-11-05T20:59:58.315Z,98737.25
2022-11-05T21:05:23.436Z,98742.94
2022-11-05T21:10:51.255Z,98745.56
2022-11-05T21:16:22.308Z,98749.34
2022-11-05T21:21:47.312Z,98759.28
2022-11-05T21:27:11.296Z,98759.75
2022-11-05T21:32:39.320Z,98753.78
2022-11-05T21:38:03.323Z,98756.78
2022-11-05T21:43:28.312Z,98757.13
2022-11-05T21:48:55.323Z,98761.13
2022-11-05T21:54:33.328Z,98748.34
2022-11-05T21:59:58.348Z,98754.03
2022-11-05T22:05:26.340Z,98744.66
2022-11-05T22:10:50.352Z,98743.09
2022-11-05T22:16:16.344Z,98738.72
2022-11-05T22:21:44.351Z,98740.63
2022-11-05T22:27:11.341Z,98730.19
2022-11-05T22:32:35.324Z,98741.09
2022-11-05T22:38:03.376Z,98737.47
2022-11-05T22:43:27.363Z,98742.69
2022-11-05T22:48:59.355Z,98747.81
2022-11-05T22:54:27.342Z,98762.72
2022-11-05T22:59:51.367Z,98743.91
2022-11-05T23:05:17.455Z,98755.00
2022-11-05T23:10:57.506Z,98750.91
2022-11-05T23:16:34.345Z,98742.97
2022-11-05T23:22:11.357Z,98750.50
2022-11-05T23:27:43.356Z,98745.66
2022-11-05T23:33:08.370Z,98744.69
2022-11-05T23:38:45.492Z,98737.31
2022-11-05T23:44:25.389Z,98726.16
2022-11-05T23:49:50.380Z,98727.38
2022-11-05T23:55:14.419Z,98733.28
